Time;durP1;ratioP1;P1;durP2;ratioP2;P2;SDS_P1;SDS_P2;PMS_P1;PMS_P2;Temp;Humidity;BMP_temperature;BMP_pressure;BME280_temperature;BME280_humidity;BME280_pressure;Samples;Min_cycle;Max_cycle;Signal;HPM_P1;HPM_P2
2022/11/11 00:01:22;;;;;;;1.40;0.90;;;;;;;23.49;40.76;100584.59;5130551;28;20104;-55
2022/11/11 00:03:48;;;;;;;1.33;0.93;;;;;;;23.47;40.57;100578.59;5115511;28;20089;-55
2022/11/11 00:06:15;;;;;;;1.30;0.80;;;;;;;23.47;40.58;100580.56;5115698;28;20391;-54
2022/11/11 00:08:41;;;;;;;1.23;0.90;;;;;;;23.46;40.59;100582.56;5115201;28;20470;-55
2022/11/11 00:11:09;;;;;;;1.48;0.82;;;;;;;23.45;40.57;100577.34;5123958;28;20091;-68
2022/11/11 00:13:37;;;;;;;1.50;0.90;;;;;;;23.45;40.53;100575.34;5115684;28;20410;-54
2022/11/11 00:16:07;;;;;;;1.23;0.70;;;;;;;23.44;40.60;100575.72;5119350;28;20050;-55
2022/11/11 00:26:45;;;;;;;1.25;0.70;;;;;;;23.66;39.91;100568.66;5115310;28;20412;-68
2022/11/11 00:29:10;;;;;;;1.13;0.80;;;;;;;23.68;39.88;100569.91;5113282;28;20487;-54
2022/11/11 00:32:21;;;;;;;1.30;0.80;;;;;;;23.65;39.98;100569.81;5117655;28;20083;-54
2022/11/11 00:34:21;;;;;;;1.15;0.73;;;;;;;23.64;40.14;100573.78;5121298;28;20147;-53
2022/11/11 00:36:46;;;;;;;1.20;0.80;;;;;;;23.65;40.02;100573.44;5127130;27;20554;-55
2022/11/11 00:39:11;;;;;;;1.50;0.80;;;;;;;23.70;40.49;100572.31;5118691;28;20039;-55
2022/11/11 00:41:37;;;;;;;1.00;0.70;;;;;;;23.75;39.90;100575.63;5132644;28;20522;-55
2022/11/11 00:44:02;;;;;;;1.10;0.80;;;;;;;23.78;39.51;100579.69;5116645;27;20043;-68
2022/11/11 00:51:55;;;;;;;1.30;0.80;;;;;;;23.68;39.85;100572.69;5118911;28;20423;-68
2022/11/11 00:54:21;;;;;;;0.95;0.65;;;;;;;23.63;39.95;100581.34;5127187;28;20495;-56
2022/11/11 00:56:46;;;;;;;0.88;0.68;;;;;;;23.60;39.87;100587.66;5118533;28;20047;-56
2022/11/11 00:59:12;;;;;;;0.98;0.73;;;;;;;23.56;39.98;100584.75;5120530;28;20398;-68
2022/11/11 01:01:37;;;;;;;1.58;0.85;;;;;;;23.51;40.03;100587.06;5116062;27;20403;-56
2022/11/11 01:04:03;;;;;;;1.25;0.60;;;;;;;23.53;39.93;100599.47;5114296;28;20077;-68
2022/11/11 01:06:29;;;;;;;1.15;0.80;;;;;;;23.51;39.93;100601.03;5113935;27;20097;-68
2022/11/11 01:08:55;;;;;;;1.17;0.80;;;;;;;23.52;39.95;100597.06;5112615;28;20036;-56
2022/11/11 01:11:24;;;;;;;1.10;0.70;;;;;;;23.47;40.05;100595.34;5116737;28;20046;-54
2022/11/11 01:13:50;;;;;;;1.58;0.93;;;;;;;23.49;39.80;100604.16;5116573;28;20562;-68
2022/11/11 01:16:19;;;;;;;1.50;0.90;;;;;;;23.48;39.86;100599.75;5112688;28;20048;-67
2022/11/11 01:18:44;;;;;;;1.05;0.70;;;;;;;23.47;39.92;100605.72;5112227;28;20040;-67
2022/11/11 01:21:20;;;;;;;0.75;0.60;;;;;;;23.46;39.85;100612.47;5121661;28;20504;-55
2022/11/11 01:23:48;;;;;;;0.90;0.70;;;;;;;23.46;39.89;100610.47;5132234;27;20039;-54
2022/11/11 01:26:15;;;;;;;1.38;0.70;;;;;;;23.43;39.68;100602.00;5116798;27;20457;-54
2022/11/11 01:28:41;;;;;;;1.15;0.80;;;;;;;23.41;39.96;100607.97;5116087;27;20047;-55
2022/11/11 01:31:12;;;;;;;1.02;0.73;;;;;;;23.42;39.84;100614.34;5114017;28;20035;-55
2022/11/11 01:33:39;;;;;;;1.27;0.77;;;;;;;23.41;39.93;100609.94;5131537;28;20419;-57
2022/11/11 01:36:04;;;;;;;1.10;0.80;;;;;;;23.43;39.75;100610.38;5114778;27;20126;-69
2022/11/11 01:38:30;;;;;;;1.95;1.05;;;;;;;23.41;39.84;100609.94;5113983;28;20131;-69
2022/11/11 01:40:55;;;;;;;1.17;0.82;;;;;;;23.39;39.79;100604.72;5113820;27;20047;-54
2022/11/11 01:43:22;;;;;;;1.80;1.00;;;;;;;23.39;39.73;100599.16;5117115;27;20445;-66
2022/11/11 01:45:57;;;;;;;1.40;0.75;;;;;;;23.39;39.77;100603.94;5113370;28;20054;-55
2022/11/11 01:51:37;;;;;;;1.73;1.00;;;;;;;23.38;39.80;100605.91;5112085;28;20104;-67
2022/11/11 01:54:09;;;;;;;1.60;1.02;;;;;;;23.38;39.74;100607.91;5132376;28;20051;-68
2022/11/11 01:56:35;;;;;;;1.73;1.00;;;;;;;23.37;39.62;100601.50;5132513;28;20082;-55
2022/11/11 01:59:04;;;;;;;1.30;0.80;;;;;;;23.37;39.68;100607.09;5112618;28;20048;-67
2022/11/11 02:01:31;;;;;;;1.58;0.88;;;;;;;23.38;39.72;100610.69;5111711;28;20064;-68
2022/11/11 02:06:43;;;;;;;1.60;1.00;;;;;;;23.38;39.55;100608.72;5113277;27;20051;-67
2022/11/11 02:09:09;;;;;;;1.20;0.80;;;;;;;23.37;39.40;100612.66;5111366;28;20039;-67
2022/11/11 02:14:35;;;;;;;1.20;0.77;;;;;;;23.39;39.51;100617.88;5123743;28;20111;-68
2022/11/11 02:17:06;;;;;;;1.50;1.00;;;;;;;23.37;39.63;100612.66;5126758;28;20046;-67
2022/11/11 02:19:43;;;;;;;1.48;0.85;;;;;;;23.38;39.50;100617.06;5121856;28;20499;-67
2022/11/11 02:22:15;;;;;;;1.48;1.00;;;;;;;23.37;39.52;100623.84;5112166;28;20035;-67
2022/11/11 02:24:41;;;;;;;1.50;0.80;;;;;;;23.39;39.64;100623.47;5111443;28;20046;-54
2022/11/11 02:27:13;;;;;;;1.13;0.80;;;;;;;23.40;39.71;100617.53;5123062;28;20130;-55
2022/11/11 02:29:40;;;;;;;2.75;0.82;;;;;;;23.43;39.68;100619.59;5102494;28;20135;-68
2022/11/11 02:32:05;;;;;;;1.10;0.82;;;;;;;23.47;39.49;100628.84;5116913;28;20039;-68
2022/11/11 02:34:32;;;;;;;1.00;0.70;;;;;;;23.49;39.48;100620.09;5117697;28;20087;-56
2022/11/11 02:37:00;;;;;;;1.42;0.90;;;;;;;23.53;39.51;100627.41;5130600;28;20043;-56
2022/11/11 02:39:26;;;;;;;1.20;0.75;;;;;;;23.57;39.42;100622.69;5116939;28;20043;-67
2022/11/11 02:41:57;;;;;;;1.17;0.80;;;;;;;23.59;39.46;100622.34;5122491;27;20043;-69
2022/11/11 02:44:26;;;;;;;1.13;0.70;;;;;;;23.59;39.37;100630.72;5111760;28;20055;-56
2022/11/11 02:46:52;;;;;;;0.93;0.70;;;;;;;23.63;39.30;100633.63;5115310;28;20403;-66
2022/11/11 02:49:17;;;;;;;1.02;0.77;;;;;;;23.63;39.33;100628.03;5110963;28;20048;-66
2022/11/11 02:51:43;;;;;;;1.00;0.70;;;;;;;23.65;39.21;100622.88;5115417;28;20543;-68
2022/11/11 02:54:08;;;;;;;1.35;0.80;;;;;;;23.65;39.16;100628.47;5121593;28;20062;-67
2022/11/11 02:59:18;;;;;;;1.00;0.77;;;;;;;23.69;39.18;100637.75;5118032;27;20521;-67
2022/11/11 03:01:43;;;;;;;0.93;0.70;;;;;;;23.69;39.29;100640.53;5129039;27;20039;-54
2022/11/11 03:04:08;;;;;;;1.27;0.80;;;;;;;23.70;39.14;100639.38;5131117;28;20035;-67
2022/11/11 03:06:34;;;;;;;0.95;0.70;;;;;;;23.71;39.12;100643.78;5128136;27;20533;-68
2022/11/11 03:08:59;;;;;;;1.05;0.75;;;;;;;23.74;39.07;100637.47;5111129;28;20039;-54
2022/11/11 03:11:27;;;;;;;1.50;0.70;;;;;;;23.78;39.29;100647.53;5120544;27;20411;-67
2022/11/11 03:13:57;;;;;;;1.40;0.90;;;;;;;23.79;39.09;100649.19;5111719;28;20109;-67
2022/11/11 03:19:07;;;;;;;1.50;0.98;;;;;;;23.80;38.99;100652.78;5110418;28;20074;-66
2022/11/11 03:21:33;;;;;;;0.57;0.50;;;;;;;23.80;39.08;100652.78;5115294;28;20492;-55
2022/11/11 03:23:58;;;;;;;1.20;0.80;;;;;;;23.78;39.05;100657.91;5120776;28;20403;-69
2022/11/11 03:26:24;;;;;;;1.10;0.70;;;;;;;23.78;38.93;100663.50;5117783;28;20058;-54
2022/11/11 03:28:49;;;;;;;0.90;0.75;;;;;;;23.79;39.13;100668.72;5116221;28;20044;-67
2022/11/11 03:31:15;;;;;;;1.38;0.75;;;;;;;23.78;38.92;100667.09;5124413;28;20048;-55
2022/11/11 03:33:41;;;;;;;0.95;0.65;;;;;;;23.81;38.93;100679.53;5122843;27;20455;-68
2022/11/11 03:36:07;;;;;;;0.90;0.70;;;;;;;23.79;38.87;100677.13;5115614;28;20119;-67
2022/11/11 03:38:32;;;;;;;1.30;0.73;;;;;;;23.79;38.84;100679.06;5123085;28;20084;-67
2022/11/11 03:40:58;;;;;;;1.13;0.75;;;;;;;23.78;38.76;100678.25;5116450;27;20035;-55
2022/11/11 03:43:26;;;;;;;1.42;0.70;;;;;;;23.81;38.79;100682.34;5110027;28;20085;-68
2022/11/11 03:45:53;;;;;;;1.00;0.70;;;;;;;23.79;38.70;100684.66;5115189;28;20043;-55
2022/11/11 03:48:19;;;;;;;1.08;0.60;;;;;;;23.79;38.67;100687.47;5115010;27;20075;-55
2022/11/11 03:50:49;;;;;;;1.02;0.70;;;;;;;23.81;38.95;100704.69;5119902;28;20120;-56
2022/11/11 03:53:16;;;;;;;1.08;0.60;;;;;;;23.80;38.74;100701.09;5100360;28;20144;-68
2022/11/11 03:55:42;;;;;;;1.00;0.70;;;;;;;23.78;38.89;100703.41;5128128;28;20083;-68
2022/11/11 03:58:07;;;;;;;1.40;0.90;;;;;;;23.81;38.77;100716.66;5114885;27;20445;-55
2022/11/11 04:00:33;;;;;;;0.93;0.70;;;;;;;23.81;38.76;100719.47;5115370;27;20035;-68
2022/11/11 04:10:21;;;;;;;1.08;0.70;;;;;;;23.81;38.57;100715.88;5119574;28;20066;-55
2022/11/11 04:11:52;;;;;;;1.08;0.70;;;;;;;23.80;38.79;100711.44;5118919;28;20045;-68
2022/11/11 04:17:01;;;;;;;0.77;0.55;;;;;;;23.80;38.67;100694.69;5124568;28;20152;-68
2022/11/11 04:22:11;;;;;;;1.05;0.60;;;;;;;23.78;38.69;100706.19;5118073;28;20107;-55
2022/11/11 04:27:20;;;;;;;2.42;0.88;;;;;;;23.79;38.59;100719.03;5114549;28;20089;-67
2022/11/11 04:29:46;;;;;;;0.90;0.55;;;;;;;23.78;38.67;100722.97;5129310;28;20133;-54
2022/11/11 04:32:37;;;;;;;0.80;0.60;;;;;;;23.79;38.63;100726.56;5122053;28;20102;-55
2022/11/11 04:35:08;;;;;;;0.90;0.60;;;;;;;23.78;38.64;100728.56;5111729;28;20035;-67
2022/11/11 04:37:36;;;;;;;1.15;0.82;;;;;;;23.77;38.61;100726.13;5121661;28;20550;-67
2022/11/11 04:42:46;;;;;;;0.90;0.63;;;;;;;23.79;38.55;100733.00;5117207;27;20251;-67
2022/11/11 04:45:29;;;;;;;0.65;0.50;;;;;;;23.78;38.44;100733.34;5109548;28;20035;-55
2022/11/11 04:48:05;;;;;;;1.63;0.80;;;;;;;23.76;38.53;100736.50;5122428;28;20039;-56
2022/11/11 04:50:33;;;;;;;1.15;0.70;;;;;;;23.75;38.47;100728.50;5121136;28;20039;-56
2022/11/11 04:53:00;;;;;;;0.98;0.68;;;;;;;23.75;38.50;100745.25;5111741;27;20043;-68
2022/11/11 04:58:10;;;;;;;1.08;0.60;;;;;;;23.76;38.69;100746.88;5129296;28;20126;-67
2022/11/11 05:00:36;;;;;;;1.40;0.80;;;;;;;23.73;38.64;100750.41;5128505;27;20057;-67
2022/11/11 05:03:14;;;;;;;0.88;0.70;;;;;;;23.76;38.73;100760.84;5119603;28;20043;-55
2022/11/11 05:09:00;;;;;;;1.00;0.60;;;;;;;23.82;38.41;100762.19;5113438;27;20518;-55
2022/11/11 05:11:36;;;;;;;1.20;0.70;;;;;;;23.82;38.49;100757.41;5112653;28;20046;-55
2022/11/11 05:22:27;;;;;;;0.52;0.50;;;;;;;23.83;38.38;100769.38;5114651;28;20487;-68
2022/11/11 05:27:37;;;;;;;0.85;0.63;;;;;;;23.81;38.33;100775.34;5120414;28;20062;-55
2022/11/11 05:30:04;;;;;;;0.93;0.57;;;;;;;23.81;38.42;100780.13;5126620;27;20040;-67
2022/11/11 05:32:29;;;;;;;0.88;0.60;;;;;;;23.80;38.19;100781.31;5112135;28;20507;-55
2022/11/11 05:34:54;;;;;;;0.90;0.70;;;;;;;23.80;38.20;100786.88;5113430;28;20060;-55
2022/11/11 05:37:20;;;;;;;0.73;0.52;;;;;;;23.81;38.33;100788.50;5119893;28;20051;-55
2022/11/11 05:39:46;;;;;;;1.10;0.73;;;;;;;23.77;38.31;100785.63;5114362;28;20051;-69
2022/11/11 05:42:11;;;;;;;0.80;0.60;;;;;;;23.80;38.10;100795.28;5126071;27;20051;-68
2022/11/11 05:44:37;;;;;;;1.05;0.70;;;;;;;23.80;38.19;100798.06;5120686;28;20043;-68
2022/11/11 05:47:02;;;;;;;1.00;0.70;;;;;;;23.79;38.26;100796.41;5111982;28;20058;-68
2022/11/11 05:49:28;;;;;;;0.90;0.70;;;;;;;23.78;38.02;100790.03;5116806;28;20043;-68
2022/11/11 05:51:55;;;;;;;0.82;0.63;;;;;;;23.79;37.95;100794.47;5111867;28;20063;-55
2022/11/11 05:54:21;;;;;;;0.90;0.65;;;;;;;23.79;38.11;100790.84;5119722;28;20040;-68
2022/11/11 05:56:47;;;;;;;0.98;0.60;;;;;;;23.78;38.17;100794.81;5124001;27;20126;-68
2022/11/11 05:59:13;;;;;;;1.02;0.80;;;;;;;23.76;38.21;100791.56;5114208;28;20085;-69
2022/11/11 06:01:39;;;;;;;1.08;0.70;;;;;;;23.79;38.27;100788.03;5112924;28;20478;-54
2022/11/11 06:04:05;;;;;;;0.88;0.70;;;;;;;23.78;38.11;100801.19;5128285;27;20495;-55
2022/11/11 06:06:31;;;;;;;0.90;0.70;;;;;;;23.78;38.16;100805.97;5119247;27;20497;-56
2022/11/11 06:08:57;;;;;;;0.90;0.60;;;;;;;23.75;38.13;100801.94;5119280;28;20507;-55
2022/11/11 06:11:22;;;;;;;0.90;0.70;;;;;;;23.78;38.28;100803.19;5116211;27;20051;-68
2022/11/11 06:13:48;;;;;;;1.00;0.70;;;;;;;23.77;38.16;100810.75;5111343;28;20040;-54
2022/11/11 06:16:14;;;;;;;1.10;0.60;;;;;;;23.76;38.46;100819.50;5111536;28;20324;-67
2022/11/11 06:18:39;;;;;;;0.82;0.52;;;;;;;23.77;38.05;100813.56;5113869;27;20040;-67
2022/11/11 06:21:05;;;;;;;0.90;0.70;;;;;;;23.78;38.03;100814.38;5122269;27;20118;-66
2022/11/11 06:23:30;;;;;;;1.02;0.63;;;;;;;23.76;38.26;100809.13;5111429;28;20051;-67
2022/11/11 06:26:11;;;;;;;0.90;0.60;;;;;;;23.78;38.03;100823.56;5115347;28;20108;-68
2022/11/11 06:28:46;;;;;;;1.00;0.60;;;;;;;23.78;38.36;100826.34;5125491;28;20050;-55
2022/11/11 06:31:17;;;;;;;0.90;0.52;;;;;;;23.76;38.35;100817.53;5118509;27;20105;-68
2022/11/11 06:33:42;;;;;;;0.75;0.57;;;;;;;23.76;38.10;100827.88;5111155;28;20043;-68
2022/11/11 06:36:12;;;;;;;1.00;0.77;;;;;;;23.78;38.20;100831.13;5111134;28;20035;-56
2022/11/11 06:38:37;;;;;;;0.88;0.60;;;;;;;23.77;38.19;100829.50;5124691;28;20499;-69
2022/11/11 06:41:03;;;;;;;0.98;0.63;;;;;;;23.77;38.14;100830.31;5128332;27;20120;-54
2022/11/11 06:43:28;;;;;;;0.50;0.50;;;;;;;23.80;38.28;100832.41;5117486;28;20049;-68
2022/11/11 06:45:54;;;;;;;0.95;0.60;;;;;;;23.82;38.39;100830.06;5122100;28;20042;-55
2022/11/11 06:48:21;;;;;;;0.70;0.60;;;;;;;23.81;38.50;100834.03;5130773;28;20339;-67
2022/11/11 06:50:47;;;;;;;0.70;0.60;;;;;;;23.83;38.17;100834.47;5116783;27;20047;-68
2022/11/11 06:53:15;;;;;;;0.70;0.60;;;;;;;23.83;38.25;100842.03;5128903;28;20110;-56
2022/11/11 06:55:40;;;;;;;1.15;0.75;;;;;;;23.82;38.09;100840.41;5114925;28;20047;-56
2022/11/11 06:58:07;;;;;;;0.60;0.45;;;;;;;23.82;38.11;100843.22;5121624;28;20043;-56
2022/11/11 07:00:34;;;;;;;0.93;0.68;;;;;;;23.80;38.19;100845.56;5123734;27;20039;-56
2022/11/11 07:03:00;;;;;;;1.02;0.68;;;;;;;23.78;38.11;100843.09;5114861;28;20407;-67
2022/11/11 07:05:26;;;;;;;0.82;0.60;;;;;;;23.80;37.96;100854.75;5122793;28;20048;-56
2022/11/11 07:07:51;;;;;;;1.05;0.80;;;;;;;23.79;38.11;100852.31;5124976;28;20111;-68
2022/11/11 07:10:17;;;;;;;1.00;0.70;;;;;;;23.78;38.11;100859.06;5110478;28;20122;-69
2022/11/11 07:12:43;;;;;;;0.93;0.65;;;;;;;23.77;38.02;100858.25;5120209;27;20451;-69
2022/11/11 07:15:09;;;;;;;1.15;0.75;;;;;;;23.79;38.02;100853.13;5110425;28;20031;-56
2022/11/11 07:17:34;;;;;;;0.80;0.60;;;;;;;23.78;38.16;100851.50;5117451;28;20043;-54
2022/11/11 07:19:59;;;;;;;0.70;0.60;;;;;;;23.76;37.78;100845.47;5121912;28;20080;-67
2022/11/11 07:22:25;;;;;;;0.90;0.70;;;;;;;23.80;38.03;100848.38;5110394;28;20119;-55
2022/11/11 07:24:50;;;;;;;0.68;0.60;;;;;;;23.80;38.04;100842.78;5119720;28;20035;-67
2022/11/11 07:27:16;;;;;;;1.13;0.68;;;;;;;23.81;37.89;100849.97;5129936;28;20608;-55
2022/11/11 07:29:41;;;;;;;0.93;0.70;;;;;;;23.81;38.02;100853.59;5130196;27;20051;-68
2022/11/11 07:32:07;;;;;;;1.10;0.70;;;;;;;23.80;37.99;100853.94;5116905;27;20084;-68
2022/11/11 07:34:32;;;;;;;1.00;0.70;;;;;;;23.81;37.78;100852.78;5109469;28;20048;-67
2022/11/11 07:36:57;;;;;;;1.38;0.90;;;;;;;23.82;38.16;100857.19;5128511;28;20074;-67
2022/11/11 07:39:23;;;;;;;0.98;0.70;;;;;;;23.80;37.99;100859.53;5124461;27;20046;-68
2022/11/11 07:41:48;;;;;;;1.50;0.70;;;;;;;23.80;37.91;100865.13;5115332;28;20081;-55
2022/11/11 07:44:14;;;;;;;1.02;0.70;;;;;;;23.81;38.14;100869.53;5119192;28;20042;-67
2022/11/11 07:46:39;;;;;;;0.57;0.50;;;;;;;23.80;38.08;100863.16;5112065;28;20126;-68
2022/11/11 07:49:05;;;;;;;1.15;0.80;;;;;;;23.80;38.19;100862.34;5114797;27;20062;-67
2022/11/11 07:51:30;;;;;;;0.85;0.60;;;;;;;23.78;38.03;100867.44;5112092;27;20059;-55
2022/11/11 07:53:56;;;;;;;0.95;0.70;;;;;;;23.80;38.06;100877.13;5120221;28;20458;-68
2022/11/11 07:56:21;;;;;;;0.77;0.70;;;;;;;23.81;38.03;100863.94;5115976;28;20062;-56
2022/11/11 07:58:46;;;;;;;1.05;0.70;;;;;;;23.80;37.94;100867.91;5119959;27;20450;-56
2022/11/11 08:01:12;;;;;;;1.08;0.63;;;;;;;23.80;38.06;100865.13;5091648;28;20294;-55
2022/11/11 08:03:48;;;;;;;0.60;0.57;;;;;;;23.81;38.22;100861.16;5119269;27;20547;-69
2022/11/11 08:06:17;;;;;;;0.77;0.70;;;;;;;23.82;37.96;100862.78;5109241;28;20055;-56
2022/11/11 08:08:43;;;;;;;1.13;0.70;;;;;;;23.82;38.08;100865.56;5076557;28;20062;-55
2022/11/11 08:11:08;;;;;;;0.90;0.80;;;;;;;23.81;38.13;100856.38;5106140;28;20031;-68
2022/11/11 08:13:39;;;;;;;1.00;0.63;;;;;;;23.83;38.01;100864.41;5124297;28;20495;-56
2022/11/11 08:16:09;;;;;;;1.08;0.70;;;;;;;23.83;38.10;100858.81;5111822;28;20538;-68
2022/11/11 08:18:35;;;;;;;0.95;0.70;;;;;;;23.84;38.01;100858.44;5113005;28;20047;-54
2022/11/11 08:21:01;;;;;;;0.77;0.60;;;;;;;23.82;37.98;100858.00;5110684;27;20497;-68
2022/11/11 08:23:32;;;;;;;1.02;0.70;;;;;;;23.83;38.08;100856.00;5114889;28;20393;-69
2022/11/11 08:25:59;;;;;;;0.90;0.60;;;;;;;23.86;38.07;100858.06;5114507;27;20055;-56
2022/11/11 08:28:25;;;;;;;1.15;0.70;;;;;;;23.85;38.23;100853.66;5113713;28;20539;-55
2022/11/11 08:30:51;;;;;;;1.00;0.60;;;;;;;23.86;38.21;100852.47;5120740;27;20080;-68
2022/11/11 08:33:17;;;;;;;1.17;0.80;;;;;;;23.87;38.30;100854.94;5122754;28;20415;-68
2022/11/11 08:35:42;;;;;;;1.10;0.70;;;;;;;23.85;38.05;100856.44;5122692;27;20523;-55
2022/11/11 08:38:08;;;;;;;0.80;0.55;;;;;;;23.88;38.02;100859.34;5112302;28;20136;-68
2022/11/11 08:40:33;;;;;;;1.00;0.80;;;;;;;23.91;38.16;100857.00;5109070;28;20139;-68
2022/11/11 08:42:59;;;;;;;0.88;0.65;;;;;;;23.93;38.21;100852.66;5110866;28;20434;-68
2022/11/11 08:45:25;;;;;;;1.63;0.90;;;;;;;23.97;38.10;100844.38;5122895;27;20040;-68
2022/11/11 08:47:50;;;;;;;0.90;0.50;;;;;;;23.96;38.05;100840.78;5117004;27;20118;-55
2022/11/11 08:50:17;;;;;;;1.30;0.90;;;;;;;23.98;37.92;100843.19;5122346;28;20058;-68
2022/11/11 08:52:50;;;;;;;0.60;0.60;;;;;;;23.98;38.24;100838.41;5117572;28;20132;-68
2022/11/11 08:55:16;;;;;;;1.25;0.80;;;;;;;23.99;38.11;100828.84;5132527;28;20058;-55
2022/11/11 08:57:41;;;;;;;1.05;0.80;;;;;;;24.00;38.09;100843.66;5130711;27;20411;-55
2022/11/11 09:00:08;;;;;;;1.13;0.60;;;;;;;24.00;37.98;100830.47;5114878;28;20505;-56
2022/11/11 09:02:34;;;;;;;0.70;0.60;;;;;;;23.98;38.20;100835.63;5114318;28;20035;-55
2022/11/11 09:05:00;;;;;;;0.82;0.70;;;;;;;24.02;38.17;100839.34;5124392;27;20048;-54
2022/11/11 09:07:26;;;;;;;0.73;0.60;;;;;;;24.01;38.11;100832.13;5112299;28;20068;-67
2022/11/11 09:09:51;;;;;;;1.02;0.70;;;;;;;24.01;38.23;100842.50;5114743;28;20518;-68
2022/11/11 09:12:17;;;;;;;1.27;0.68;;;;;;;24.02;38.15;100839.34;5123288;28;20406;-67
2022/11/11 09:14:42;;;;;;;0.70;0.60;;;;;;;24.02;38.12;100841.31;5122123;28;20031;-67
2022/11/11 09:17:08;;;;;;;0.80;0.60;;;;;;;24.01;38.02;100836.91;5112399;27;20112;-67
2022/11/11 09:19:33;;;;;;;1.30;0.68;;;;;;;24.02;38.13;100830.94;5112930;28;20492;-55
2022/11/11 09:21:58;;;;;;;0.73;0.60;;;;;;;24.01;38.11;100820.94;5117927;28;20043;-67
2022/11/11 09:24:24;;;;;;;0.68;0.55;;;;;;;24.03;37.93;100817.78;5132391;28;20122;-67
2022/11/11 09:26:50;;;;;;;1.00;0.70;;;;;;;24.03;37.95;100813.00;5118276;28;20051;-55
2022/11/11 09:29:16;;;;;;;0.90;0.60;;;;;;;24.04;37.94;100817.41;5116791;27;20039;-68
2022/11/11 09:31:41;;;;;;;1.15;0.80;;;;;;;24.03;37.94;100817.78;5112243;28;20130;-55
2022/11/11 09:34:07;;;;;;;0.82;0.70;;;;;;;24.03;38.00;100813.00;5126191;28;20637;-69
2022/11/11 09:36:33;;;;;;;1.40;0.93;;;;;;;24.04;38.24;100817.41;5121827;28;20051;-54
2022/11/11 09:38:58;;;;;;;1.15;0.85;;;;;;;24.06;38.21;100817.03;5128788;27;20035;-56
2022/11/11 09:41:42;;;;;;;1.15;0.70;;;;;;;24.03;37.96;100815.78;5116283;28;20070;-54
2022/11/11 09:44:17;;;;;;;0.80;0.60;;;;;;;24.05;38.20;100816.22;5111978;28;20044;-66
2022/11/11 09:47:18;;;;;;;1.67;0.70;;;;;;;24.07;38.27;100822.25;5116564;28;20400;-68
2022/11/11 09:49:46;;;;;;;0.88;0.60;;;;;;;24.07;38.10;100836.25;5044851;28;20467;-67
2022/11/11 09:52:21;;;;;;;1.13;0.70;;;;;;;24.07;38.07;100825.06;5049044;28;20056;-55
2022/11/11 09:55:02;;;;;;;0.50;0.50;;;;;;;24.07;38.21;100832.63;5048505;28;20064;-55
2022/11/11 09:58:05;;;;;;;1.00;0.70;;;;;;;24.07;38.08;100835.44;5061861;28;20048;-68
2022/11/11 10:00:35;;;;;;;0.63;0.55;;;;;;;24.07;38.14;100832.63;5015225;28;20463;-67
2022/11/11 10:03:13;;;;;;;1.02;0.70;;;;;;;24.07;38.12;100836.25;5048718;28;20568;-66
2022/11/11 10:05:50;;;;;;;0.60;0.45;;;;;;;24.09;38.05;100830.31;5045945;28;20067;-68
2022/11/11 10:08:26;;;;;;;0.63;0.50;;;;;;;24.07;38.24;100830.66;5046995;28;20057;-55
2022/11/11 10:10:54;;;;;;;1.33;0.70;;;;;;;24.09;38.29;100838.69;5048286;28;20037;-55
2022/11/11 10:13:24;;;;;;;0.85;0.65;;;;;;;24.09;38.32;100833.91;5030779;28;20054;-54
2022/11/11 10:16:25;;;;;;;1.00;0.70;;;;;;;24.10;38.23;100827.13;5045006;28;20045;-55
2022/11/11 10:19:29;;;;;;;0.82;0.68;;;;;;;24.13;38.12;100828.38;4969559;28;20066;-55
2022/11/11 10:22:24;;;;;;;0.90;0.70;;;;;;;24.12;38.26;100815.59;4929590;29;20286;-55
2022/11/11 10:25:12;;;;;;;0.90;0.68;;;;;;;24.13;38.04;100820.81;4963028;28;20089;-55
2022/11/11 10:27:42;;;;;;;0.80;0.60;;;;;;;24.14;38.23;100813.22;4947988;29;20062;-68
2022/11/11 10:30:37;;;;;;;0.63;0.60;;;;;;;24.13;38.10;100806.03;4966255;28;20046;-69
2022/11/11 10:33:10;;;;;;;1.00;0.60;;;;;;;24.14;38.31;100805.66;4951355;28;20043;-68
2022/11/11 10:35:40;;;;;;;1.23;0.70;;;;;;;24.14;38.30;100808.44;4955738;28;20125;-69
2022/11/11 10:38:20;;;;;;;0.90;0.70;;;;;;;24.15;38.28;100804.50;4969500;28;20046;-55
2022/11/11 10:40:51;;;;;;;0.90;0.75;;;;;;;24.14;38.36;100805.66;4969224;28;20054;-55
2022/11/11 10:43:28;;;;;;;0.80;0.60;;;;;;;24.14;38.38;100802.84;4957034;28;20508;-66
2022/11/11 10:46:00;;;;;;;1.00;0.70;;;;;;;24.17;38.38;100799.34;4969102;28;20463;-55
2022/11/11 10:48:37;;;;;;;0.88;0.65;;;;;;;24.16;38.43;100797.75;4969546;28;20129;-68
2022/11/11 10:51:04;;;;;;;1.08;0.70;;;;;;;24.17;38.41;100785.38;4969178;28;20050;-55
2022/11/11 10:53:45;;;;;;;0.80;0.70;;;;;;;24.19;38.14;100781.41;5043747;28;20151;-68
2022/11/11 10:56:21;;;;;;;0.95;0.70;;;;;;;24.19;38.40;100779.41;5101646;27;20096;-69
2022/11/11 10:59:05;;;;;;;1.20;0.73;;;;;;;24.21;38.27;100784.63;5122408;27;20042;-68
2022/11/11 11:01:37;;;;;;;1.10;0.70;;;;;;;24.18;38.38;100775.00;5116236;28;20077;-57
2022/11/11 11:04:08;;;;;;;1.05;0.75;;;;;;;24.20;38.49;100783.81;5118260;28;20040;-67
2022/11/11 11:06:41;;;;;;;0.80;0.60;;;;;;;24.22;38.24;100777.84;5118005;27;20056;-55
2022/11/11 11:09:43;;;;;;;1.17;0.70;;;;;;;24.22;38.49;100775.06;5110539;28;20044;-65
2022/11/11 11:12:16;;;;;;;1.00;0.63;;;;;;;24.23;38.57;100760.75;5125856;27;20054;-55
2022/11/11 11:14:46;;;;;;;0.90;0.70;;;;;;;24.23;38.52;100762.72;5111599;28;20047;-67
2022/11/11 11:17:54;;;;;;;0.98;0.70;;;;;;;24.24;38.26;100764.34;5122511;27;20055;-55
2022/11/11 11:20:21;;;;;;;0.93;0.70;;;;;;;24.23;38.38;100752.34;5046596;28;20045;-56
2022/11/11 11:22:51;;;;;;;0.68;0.60;;;;;;;24.22;38.50;100750.75;5047053;28;20057;-67
2022/11/11 11:25:19;;;;;;;0.80;0.73;;;;;;;24.23;38.34;100749.56;5047526;28;20041;-66
2022/11/11 11:27:46;;;;;;;0.88;0.70;;;;;;;24.23;38.33;100746.75;5046870;28;20536;-66
2022/11/11 11:30:21;;;;;;;1.10;0.70;;;;;;;24.25;38.49;100743.59;5047351;28;20069;-66
2022/11/11 11:33:10;;;;;;;0.80;0.70;;;;;;;24.25;38.49;100738.00;5047150;28;20115;-67
2022/11/11 11:35:38;;;;;;;0.70;0.52;;;;;;;24.23;38.59;100745.97;5043238;28;20570;-67
2022/11/11 11:38:05;;;;;;;0.80;0.50;;;;;;;24.26;38.54;100736.81;5045611;28;20088;-67
2022/11/11 11:40:45;;;;;;;0.80;0.60;;;;;;;24.26;38.62;100740.44;5030385;28;20494;-55
2022/11/11 11:43:26;;;;;;;0.70;0.52;;;;;;;24.26;38.65;100731.22;5035885;28;20117;-67
2022/11/11 11:45:58;;;;;;;1.35;0.70;;;;;;;24.26;38.56;100728.44;5021604;28;20521;-56
2022/11/11 11:48:40;;;;;;;0.90;0.70;;;;;;;24.26;38.51;100722.84;5047058;28;20537;-69
2022/11/11 11:51:23;;;;;;;0.80;0.60;;;;;;;24.28;38.50;100723.28;5025256;28;20041;-69
2022/11/11 11:54:06;;;;;;;;;;;;;;;24.33;38.38;100731.41;5069927;28;20518;-65
2022/11/11 11:56:41;;;;;;;1.30;0.80;;;;;;;24.27;38.65;100716.06;5091515;28;20483;-54
2022/11/11 11:59:28;;;;;;;1.02;0.70;;;;;;;24.27;38.52;100710.47;5092326;28;20135;-66
2022/11/11 12:02:18;;;;;;;0.63;0.45;;;;;;;24.26;38.70;100706.88;5099072;28;20078;-66
2022/11/11 12:05:20;;;;;;;0.90;0.60;;;;;;;24.27;38.61;100699.28;5089827;28;20377;-55
2022/11/11 12:07:57;;;;;;;0.80;0.60;;;;;;;24.24;38.74;100688.84;5095462;28;20055;-67
2022/11/11 12:10:28;;;;;;;0.82;0.75;;;;;;;24.25;38.66;100688.47;5106966;28;20048;-55
2022/11/11 12:13:18;;;;;;;0.82;0.70;;;;;;;24.26;38.65;100684.50;5095146;28;20500;-55
2022/11/11 12:16:02;;;;;;;0.77;0.57;;;;;;;24.27;38.63;100682.53;5089216;28;20115;-56
2022/11/11 12:18:46;;;;;;;1.35;0.80;;;;;;;24.27;38.83;100674.94;5090807;28;20040;-55
2022/11/11 12:21:22;;;;;;;0.90;0.60;;;;;;;24.27;38.72;100671.34;5089070;28;20419;-55
2022/11/11 12:23:55;;;;;;;0.85;0.60;;;;;;;24.27;38.83;100677.72;5096558;28;20051;-68
2022/11/11 12:26:23;;;;;;;1.08;0.70;;;;;;;24.27;38.80;100662.94;5096151;28;20074;-66
2022/11/11 12:29:22;;;;;;;0.80;0.60;;;;;;;24.27;38.66;100660.16;5095873;28;20067;-68
2022/11/11 12:32:13;;;;;;;0.77;0.60;;;;;;;24.27;38.75;100660.16;5092640;28;20063;-55
2022/11/11 12:34:58;;;;;;;0.80;0.60;;;;;;;24.27;38.82;100657.34;5089304;28;20500;-68
2022/11/11 12:38:03;;;;;;;0.80;0.60;;;;;;;24.26;38.97;100645.34;5093688;28;20504;-55
2022/11/11 12:40:51;;;;;;;0.90;0.57;;;;;;;24.28;38.93;100645.78;5099640;28;20055;-55